Tucson/Davis-Monthan AFB, Arizona
Current Conditions -  °F | °C
As of 1:58 PM on Saturday 25 Oct 2014 (Local Time) from KDMA Reporting Station
Clear Clear  
Wind Chill: 93°   Ceiling: Unl
Heat Index: 93°   Visibility: 10mi
Dew Point: 48°   Wind: 8mph
Humidity: 22%   Direction: 190°S
Pressure: 30.03"   Gusts: 17mph
Location:  32.16°N, 110.88°W
Report Text: KDMA 252058Z AUTO 19007G15KT 10SM CLR 34/09 A3003 RMK AO2 SLP126 60000 T03370091 57024 $
Loading
Personal Weather Stations






























Interactive Weather Map
Tropical Storm Tracking
New forecast layout! Learn more

10-Day Weather Forecast

Advertisements
Track Severe Weather on mobile